Prospector, Canada
Current Conditions -  °F | °C
As of 7:00 PM on Saturday 25 Oct 2014 (Local Time) from CYQD Reporting Station
Few Clouds Few Clouds  
Wind Chill: -2°   Ceiling: Unl
Heat Index:   Visibility: 15mi
Dew Point: -2°   Wind: 9mph
Humidity: 75%   Direction: 260°W
Pressure: 29.95"   Gusts: NA
Location:  52.95°N, 101.27°W
Report Text: CYQD 260000Z 26008KT 15SM FEW025 FEW120 FEW200 02/M02 A2995 RMKSC1AC1CI0 TR SC SLP157
Loading
Personal Weather Stations






























Interactive Weather Map
Tropical Storm Tracking
New forecast layout! Learn more

10-Day Weather Forecast

Advertisements
Track Severe Weather on mobile